| Record Date MM/DD/YYYY | Record Time HH:MM:SS | Record Julian Date NNN day of the year | Air Temperature Max (Degrees Fahrenheit F) | Time Max Air Temperature HH:MM:SS This is the time of max air temp for the prior hour interval listed for record [Time]. | Air Temperature Min (Degrees Fahrenheit F) | Time Min Air Temperature HH:MM:SS This is the time of min air temp for the prior hour interval listed for record [Time]. | Air Temperature Observed (Degrees Fahrenheit F) This is an instantaneous reading at the record [Time]. | Relative Humidity Max (Percent) | Time Max Relative Humidity HH:MM:SS This is the time of max relative humidity for the prior hour interval listed for record [Time]. | Relative Humidity Min (Percent) | Time Min Relative Humidity HH:MM:SS This is the time of min relative humidity for the prior hour interval listed for record [Time]. | Relative Humidity Observed (Percent) This is an instantaneous reading at the record [Time]. | Precipitation (Inches n.nn) rain fall that occurred during the prior hour interval listed for record [Time]. | Wind Speed (Miles Per Hour) Resultant Speed that occurred during the prior hour interval listed for record [Time]. | Wind Direction (Degrees) Resultant Direction that occurred during the prior hour interval listed for record [Time]. | Solar Radiation (Langley's) that occurred during the prior hour interval listed for record [Time]. | Soil Temperature Average at 2 inch depth (Degrees Fahrenheit F) that occurred during the prior hour interval listed for record [Time]. | Soil Temperature Observed at 2 inch depth (Degrees Fahrenheit F) This is an instantaneous reading at the record [Time]. | Soil Temperature Average at 4 inch depth (Degrees Fahrenheit F) that occurred during the prior hour interval listed for record [Time]. | Soil Temperature Observed at 4 inch depth (Degrees Fahrenheit F) This is an instantaneous reading at the record [Time]. |
|---|---|---|---|---|---|---|---|---|---|---|---|---|---|---|---|---|---|---|---|---|
| 08/29/2026 | 0:00:00 | 241 | 74 | 23:00:00 | 72 | 23:53:03 | 73 | 100 | 23:00:00 | 100 | 23:00:00 | 100 | 0 | 0.1 | 68 | 0 | 84 | 84 | 85 | 85 |
| 08/29/2026 | 1:00:00 | 241 | 73 | 0:01:03 | 72 | 0:56:01 | 72 | 100 | 0:00:00 | 100 | 0:00:00 | 100 | 0 | 0.4 | 49 | 0 | 84 | 83 | 85 | 84 |
| 08/29/2026 | 2:00:00 | 241 | 72 | 1:05:02 | 71 | 1:47:02 | 71 | 100 | 1:00:00 | 100 | 1:00:00 | 100 | 0 | 0.1 | 48 | 0 | 83 | 83 | 84 | 84 |
| 08/29/2026 | 3:00:00 | 241 | 71 | 2:00:01 | 70 | 2:59:05 | 70 | 100 | 2:00:00 | 100 | 2:00:00 | 100 | 0 | 0.6 | 54 | 0 | 83 | 82 | 83 | 83 |
| 08/29/2026 | 4:00:00 | 241 | 70 | 3:26:05 | 69 | 3:54:04 | 69 | 100 | 3:00:00 | 100 | 3:00:00 | 100 | 0 | 0.5 | 57 | 0 | 82 | 82 | 83 | 83 |
| 08/29/2026 | 5:00:00 | 241 | 69 | 4:06:01 | 69 | 4:56:00 | 69 | 100 | 4:00:00 | 100 | 4:00:00 | 100 | 0 | 0.6 | 60 | 0 | 81 | 81 | 82 | 82 |
| 08/29/2026 | 6:00:00 | 241 | 69 | 5:57:01 | 68 | 5:23:05 | 69 | 100 | 5:00:00 | 100 | 5:00:00 | 100 | 0 | 0.0 | 50 | 1 | 81 | 81 | 82 | 82 |
| 08/29/2026 | 7:00:00 | 241 | 74 | 6:59:05 | 69 | 6:00:02 | 74 | 100 | 6:00:00 | 96 | 6:59:00 | 96.6 | 0 | 0.6 | 77 | 14 | 81 | 81 | 81 | 81 |
| 08/29/2026 | 8:00:00 | 241 | 80 | 7:59:03 | 74 | 7:00:01 | 80 | 97 | 7:00:00 | 79 | 7:59:05 | 80.6 | 0 | 2.3 | 97 | 30 | 81 | 82 | 82 | 82 |
| 08/29/2026 | 9:00:00 | 241 | 86 | 9:00:00 | 80 | 8:01:04 | 86 | 83 | 8:03:04 | 68 | 8:59:05 | 68.06 | 0 | 2.8 | 95 | 45 | 83 | 84 | 82 | 83 |
| 08/29/2026 | 10:00:00 | 241 | 91 | 9:58:00 | 85 | 9:09:00 | 91 | 71 | 9:09:03 | 53 | 9:55:04 | 54.6 | 0 | 2.3 | 90 | 58 | 85 | 86 | 84 | 85 |
| 08/29/2026 | 11:00:00 | 241 | 93 | 10:47:03 | 90 | 10:06:01 | 93 | 60 | 10:06:03 | 44 | 10:35:03 | 49.57 | 0 | 2.9 | 115 | 69 | 87 | 88 | 86 | 87 |
| 08/29/2026 | 12:00:00 | 241 | 96 | 11:56:05 | 92 | 11:23:03 | 95 | 53 | 11:39:00 | 40 | 11:57:00 | 41.52 | 0 | 2.5 | 53 | 75 | 89 | 90 | 88 | 89 |
| 08/29/2026 | 13:00:00 | 241 | 97 | 12:57:04 | 92 | 12:22:01 | 97 | 55 | 12:32:00 | 41 | 12:11:04 | 44.18 | 0 | 2.5 | 29 | 71 | 91 | 92 | 89 | 90 |
| 08/29/2026 | 14:00:00 | 241 | 98 | 13:03:04 | 91 | 13:40:04 | 96 | 53 | 13:39:03 | 40 | 13:12:03 | 45.93 | 0 | 2.0 | 347 | 62 | 92 | 92 | 91 | 91 |
| 08/29/2026 | 15:00:00 | 241 | 97 | 14:25:02 | 95 | 14:09:00 | 96 | 50 | 14:38:03 | 38 | 14:41:04 | 44.1 | 0 | 2.1 | 350 | 62 | 93 | 93 | 91 | 92 |
| 08/29/2026 | 16:00:00 | 241 | 97 | 15:19:05 | 93 | 15:52:04 | 93 | 50 | 15:28:01 | 39 | 15:44:03 | 44.77 | 0 | 2.2 | 10 | 53 | 93 | 93 | 92 | 92 |
| 08/29/2026 | 17:00:00 | 241 | 93 | 16:00:04 | 91 | 16:58:05 | 91 | 53 | 16:53:05 | 43 | 16:02:00 | 48.2 | 0 | 2.7 | 53 | 31 | 92 | 92 | 92 | 91 |
| 08/29/2026 | 18:00:00 | 241 | 91 | 17:01:05 | 84 | 17:59:05 | 84 | 76 | 17:58:04 | 49 | 17:00:00 | 75.72 | 0 | 1.6 | 48 | 12 | 91 | 90 | 91 | 90 |
| 08/29/2026 | 19:00:00 | 241 | 84 | 18:00:00 | 77 | 18:59:04 | 77 | 88 | 19:00:00 | 76 | 18:00:00 | 88.3 | 0 | 0.9 | 62 | 1 | 89 | 88 | 89 | 89 |
| 08/29/2026 | 20:00:00 | 241 | 77 | 19:00:00 | 73 | 19:58:04 | 73 | 96 | 20:00:00 | 87 | 19:05:02 | 95.9 | 0 | 0.4 | 45 | 0 | 87 | 86 | 88 | 87 |
| 08/29/2026 | 21:00:00 | 241 | 73 | 20:00:00 | 71 | 20:59:03 | 71 | 98 | 20:52:00 | 96 | 20:02:02 | 97.9 | 0 | 0.9 | 55 | 0 | 86 | 85 | 87 | 86 |
| 08/29/2026 | 22:00:00 | 241 | 71 | 21:01:00 | 70 | 21:59:01 | 70 | 98 | 21:01:00 | 97 | 21:43:00 | 97.7 | 0 | 1.1 | 43 | 0 | 85 | 84 | 86 | 85 |
| 08/29/2026 | 23:00:00 | 241 | 70 | 22:00:02 | 69 | 22:40:03 | 70 | 99 | 22:25:02 | 97 | 23:00:00 | 97.1 | 0 | 0.5 | 39 | 0 | 84 | 84 | 85 | 84 |
| 08/30/2026 | 0:00:00 | 242 | 70 | 23:04:03 | 69 | 23:42:00 | 69 | 100 | 23:59:03 | 96 | 23:09:01 | 99.6 | 0 | 0.3 | 78 | 0 | 83 | 83 | 84 | 84 |
| 08/30/2026 | 1:00:00 | 242 | 69 | 0:02:04 | 68 | 0:59:04 | 68 | 100 | 0:42:03 | 99 | 0:10:05 | 100 | 0 | 0.2 | 84 | 0 | 83 | 82 | 83 | 83 |
| 08/30/2026 | 2:00:00 | 242 | 68 | 1:28:03 | 68 | 1:17:03 | 68 | 100 | 1:00:01 | 100 | 1:04:05 | 100 | 0 | 0.1 | 76 | 0 | 82 | 82 | 83 | 83 |
| 08/30/2026 | 3:00:00 | 242 | 69 | 2:29:04 | 68 | 2:01:00 | 68 | 100 | 2:00:00 | 100 | 2:00:00 | 100 | 0 | 0.2 | 78 | 0 | 82 | 81 | 82 | 82 |
| 08/30/2026 | 4:00:00 | 242 | 68 | 3:22:02 | 68 | 3:59:01 | 68 | 100 | 3:00:00 | 100 | 3:00:00 | 100 | 0 | 0.3 | 62 | 0 | 81 | 81 | 82 | 82 |
| 08/30/2026 | 5:00:00 | 242 | 68 | 4:35:02 | 68 | 4:00:02 | 68 | 100 | 4:00:00 | 100 | 4:00:00 | 100 | 0 | 0.3 | 73 | 0 | 81 | 81 | 82 | 81 |
| 08/30/2026 | 6:00:00 | 242 | 69 | 5:59:05 | 68 | 5:00:03 | 69 | 100 | 5:00:00 | 100 | 5:00:00 | 100 | 0 | 0.2 | 106 | 1 | 80 | 80 | 81 | 81 |
| 08/30/2026 | 7:00:00 | 242 | 73 | 6:51:01 | 69 | 6:00:00 | 73 | 100 | 6:00:00 | 96 | 6:55:03 | 96.5 | 0 | 0.3 | 72 | 7 | 80 | 80 | 81 | 81 |
| 08/30/2026 | 8:00:00 | 242 | 80 | 8:00:00 | 73 | 7:01:05 | 80 | 97 | 7:11:00 | 86 | 7:58:04 | 87.3 | 0 | 1.5 | 89 | 25 | 81 | 81 | 81 | 81 |
| 08/30/2026 | 9:00:00 | 242 | 86 | 8:59:05 | 80 | 8:00:03 | 86 | 88 | 8:06:04 | 78 | 8:58:00 | 78.58 | 0 | 1.7 | 106 | 42 | 82 | 83 | 82 | 83 |
| 08/30/2026 | 10:00:00 | 242 | 89 | 10:00:00 | 86 | 9:00:00 | 89 | 80 | 9:01:03 | 70 | 9:56:02 | 72.64 | 0 | 2.7 | 91 | 54 | 85 | 86 | 84 | 84 |
| 08/30/2026 | 11:00:00 | 242 | 91 | 10:42:02 | 87 | 10:13:01 | 90 | 75 | 10:09:03 | 65 | 10:50:01 | 67.5 | 0 | 3.6 | 92 | 66 | 87 | 88 | 85 | 87 |
| 08/30/2026 | 12:00:00 | 242 | 92 | 11:20:00 | 89 | 11:04:00 | 91 | 73 | 11:07:05 | 58 | 11:53:05 | 63.63 | 0 | 3.0 | 115 | 62 | 89 | 90 | 87 | 88 |
| 08/30/2026 | 13:00:00 | 242 | 94 | 12:49:02 | 88 | 12:24:01 | 93 | 68 | 12:24:02 | 54 | 12:49:04 | 60.26 | 0 | 3.4 | 112 | 66 | 90 | 91 | 89 | 89 |
| 08/30/2026 | 14:00:00 | 242 | 95 | 13:14:03 | 92 | 13:04:02 | 94 | 62 | 13:24:00 | 51 | 13:48:01 | 51.13 | 0 | 3.5 | 105 | 71 | 92 | 92 | 90 | 91 |
| 08/30/2026 | 15:00:00 | 242 | 95 | 14:07:03 | 92 | 14:26:01 | 94 | 61 | 14:27:04 | 50 | 14:43:00 | 54.49 | 0 | 2.4 | 76 | 56 | 93 | 93 | 91 | 91 |
| 08/30/2026 | 16:00:00 | 242 | 95 | 15:43:01 | 93 | 15:59:04 | 93 | 59 | 15:58:03 | 50 | 15:14:01 | 57.84 | 0 | 3.8 | 106 | 48 | 93 | 92 | 91 | 91 |
| 08/30/2026 | 17:00:00 | 242 | 93 | 16:00:00 | 91 | 16:06:03 | 92 | 66 | 16:10:01 | 54 | 16:34:01 | 57.61 | 0 | 2.9 | 89 | 27 | 92 | 91 | 91 | 91 |
| 08/30/2026 | 18:00:00 | 242 | 92 | 17:00:00 | 88 | 17:59:05 | 88 | 75 | 18:00:00 | 56 | 17:07:01 | 75.44 | 0 | 1.8 | 82 | 11 | 90 | 89 | 90 | 90 |
| 08/30/2026 | 19:00:00 | 242 | 88 | 18:00:00 | 81 | 19:00:00 | 81 | 91 | 18:59:05 | 75 | 18:00:01 | 91.2 | 0 | 0.1 | 49 | 1 | 89 | 88 | 89 | 88 |
| 08/30/2026 | 20:00:00 | 242 | 81 | 19:00:00 | 79 | 19:29:05 | 79 | 95 | 19:40:03 | 91 | 19:04:01 | 94.7 | 0 | 0.6 | 83 | 0 | 87 | 87 | 88 | 88 |
| 08/30/2026 | 21:00:00 | 242 | 79 | 20:00:00 | 77 | 20:58:01 | 77 | 97 | 20:49:05 | 95 | 20:00:00 | 96.9 | 0 | 0.2 | 20 | 0 | 87 | 86 | 87 | 87 |
| 08/30/2026 | 22:00:00 | 242 | 77 | 21:00:00 | 76 | 21:58:04 | 76 | 99 | 21:55:05 | 97 | 21:00:01 | 98.9 | 0 | 0.1 | 11 | 0 | 86 | 85 | 86 | 86 |
| 08/30/2026 | 23:00:00 | 242 | 76 | 22:00:02 | 75 | 22:44:02 | 75 | 100 | 22:59:03 | 99 | 22:03:02 | 99.7 | 0 | 0.4 | 63 | 0 | 85 | 85 | 86 | 85 |
| 08/31/2026 | 0:00:00 | 243 | 75 | 23:00:05 | 74 | 23:48:05 | 75 | 100 | 23:20:03 | 100 | 23:03:00 | 100 | 0 | 0.2 | 105 | 0 | 84 | 84 | 85 | 85 |
| 08/31/2026 | 1:00:00 | 243 | 75 | 0:08:00 | 74 | 0:46:04 | 74 | 100 | 0:00:00 | 100 | 0:00:00 | 100 | 0 | 0.3 | 65 | 0 | 84 | 84 | 84 | 84 |
| 08/31/2026 | 2:00:00 | 243 | 74 | 1:01:05 | 73 | 1:58:01 | 73 | 100 | 1:00:00 | 100 | 1:00:00 | 100 | 0 | 0.4 | 66 | 0 | 83 | 83 | 84 | 84 |
| 08/31/2026 | 3:00:00 | 243 | 73 | 2:00:04 | 72 | 2:46:03 | 73 | 100 | 2:00:00 | 100 | 2:00:00 | 100 | 0 | 0.1 | 56 | 0 | 83 | 83 | 83 | 83 |
| 08/31/2026 | 4:00:00 | 243 | 73 | 3:04:01 | 72 | 3:46:03 | 72 | 100 | 3:00:00 | 100 | 3:00:00 | 100 | 0 | 0.5 | 68 | 0 | 82 | 82 | 83 | 83 |
| 08/31/2026 | 5:00:00 | 243 | 72 | 4:24:05 | 72 | 4:41:04 | 72 | 100 | 4:00:00 | 100 | 4:00:00 | 100 | 0 | 0.4 | 67 | 0 | 82 | 82 | 83 | 82 |
| 08/31/2026 | 6:00:00 | 243 | 73 | 5:59:05 | 71 | 5:06:00 | 73 | 100 | 5:00:00 | 100 | 5:00:00 | 100 | 0 | 0.5 | 50 | 1 | 81 | 81 | 82 | 82 |
| 08/31/2026 | 7:00:00 | 243 | 77 | 7:00:00 | 73 | 6:00:00 | 77 | 100 | 6:00:00 | 95 | 6:59:05 | 95.2 | 0 | 0.6 | 96 | 12 | 81 | 81 | 82 | 82 |
| 08/31/2026 | 8:00:00 | 243 | 83 | 7:59:05 | 77 | 7:00:00 | 83 | 96 | 7:00:03 | 84 | 7:59:03 | 85.6 | 0 | 2.1 | 94 | 27 | 82 | 83 | 82 | 82 |
| 08/31/2026 | 9:00:00 | 243 | 87 | 8:59:00 | 83 | 8:00:01 | 87 | 86 | 8:00:00 | 73 | 8:59:02 | 73.99 | 0 | 3.1 | 108 | 43 | 83 | 84 | 83 | 84 |
| 08/31/2026 | 10:00:00 | 243 | 90 | 9:49:00 | 87 | 9:03:00 | 89 | 77 | 9:03:05 | 65 | 9:49:02 | 65.97 | 0 | 4.8 | 106 | 56 | 86 | 87 | 84 | 85 |
| 08/31/2026 | 11:00:00 | 243 | 93 | 10:59:05 | 88 | 10:41:01 | 93 | 73 | 10:50:05 | 64 | 10:58:02 | 64.58 | 0 | 3.9 | 87 | 57 | 88 | 88 | 86 | 87 |
| 08/31/2026 | 12:00:00 | 243 | 93 | 11:00:00 | 89 | 11:10:05 | 92 | 72 | 11:34:05 | 60 | 11:59:00 | 60.35 | 0 | 3.5 | 88 | 55 | 89 | 90 | 88 | 88 |
| 08/31/2026 | 13:00:00 | 243 | 95 | 12:32:00 | 92 | 12:37:05 | 93 | 66 | 12:38:04 | 55 | 12:55:03 | 58.95 | 0 | 4.1 | 117 | 70 | 91 | 91 | 89 | 90 |
| 08/31/2026 | 14:00:00 | 243 | 96 | 13:26:04 | 92 | 13:00:05 | 93 | 65 | 13:02:03 | 53 | 13:29:04 | 58.8 | 0 | 4.8 | 96 | 71 | 92 | 93 | 91 | 91 |
| 08/31/2026 | 15:00:00 | 243 | 95 | 14:17:05 | 87 | 14:57:02 | 88 | 84 | 15:00:00 | 51 | 14:14:05 | 83.5 | 0 | 3.4 | 77 | 44 | 93 | 92 | 91 | 91 |
| 08/31/2026 | 16:00:00 | 243 | 95 | 15:59:03 | 88 | 15:00:04 | 95 | 88 | 15:06:03 | 56 | 15:59:01 | 58.47 | 0 | 1.8 | 39 | 39 | 92 | 92 | 91 | 91 |
| 08/31/2026 | 17:00:00 | 243 | 95 | 16:01:01 | 93 | 16:59:02 | 93 | 62 | 16:11:00 | 52 | 16:23:01 | 59 | 0 | 2.4 | 72 | 29 | 92 | 91 | 91 | 91 |
| 08/31/2026 | 18:00:00 | 243 | 93 | 17:00:01 | 89 | 17:59:05 | 89 | 79 | 18:00:00 | 54 | 17:10:00 | 79.17 | 0 | 1.4 | 77 | 12 | 90 | 89 | 90 | 90 |
| 08/31/2026 | 19:00:00 | 243 | 89 | 18:00:00 | 80 | 18:59:05 | 80 | 93 | 18:59:04 | 78 | 18:01:02 | 93.3 | 0 | 0.3 | 48 | 1 | 89 | 88 | 89 | 89 |
| 08/31/2026 | 20:00:00 | 243 | 81 | 19:00:01 | 78 | 20:00:00 | 78 | 96 | 20:00:00 | 93 | 19:00:01 | 95.7 | 0 | 0.4 | 48 | 0 | 88 | 87 | 88 | 88 |
| 08/31/2026 | 21:00:00 | 243 | 79 | 20:06:01 | 77 | 20:38:03 | 79 | 98 | 20:51:02 | 95 | 20:10:03 | 96.7 | 0 | 1.1 | 84 | 0 | 87 | 86 | 87 | 87 |
| 08/31/2026 | 22:00:00 | 243 | 79 | 21:01:03 | 77 | 21:59:04 | 77 | 98 | 21:59:05 | 95 | 21:10:02 | 98.2 | 0 | 0.7 | 45 | 0 | 86 | 86 | 86 | 86 |
| 08/31/2026 | 23:00:00 | 243 | 77 | 22:01:02 | 76 | 22:50:00 | 76 | 100 | 22:55:02 | 98 | 22:00:00 | 99.3 | 0 | 0.1 | 77 | 0 | 85 | 85 | 86 | 86 |
| 09/01/2026 | 0:00:00 | 244 | 76 | 23:00:00 | 75 | 23:56:02 | 75 | 100 | 23:59:02 | 99 | 23:01:03 | 100 | 0 | 0.0 | 112 | 0 | 85 | 84 | 85 | 85 |
| 09/01/2026 | 1:00:00 | 244 | 75 | 0:01:00 | 74 | 0:47:03 | 75 | 100 | 0:00:00 | 100 | 0:04:02 | 100 | 0 | 0.4 | 62 | 0 | 84 | 84 | 85 | 84 |
| 09/01/2026 | 2:00:00 | 244 | 75 | 1:10:05 | 74 | 1:57:05 | 74 | 100 | 1:00:00 | 100 | 1:00:00 | 100 | 0 | 0.1 | 61 | 0 | 84 | 83 | 84 | 84 |
| 09/01/2026 | 3:00:00 | 244 | 74 | 2:00:01 | 73 | 2:48:05 | 74 | 100 | 2:00:00 | 100 | 2:00:00 | 100 | 0 | 0.0 | 0 | 0 | 83 | 83 | 84 | 83 |
| 09/01/2026 | 4:00:00 | 244 | 74 | 3:00:00 | 73 | 3:50:00 | 73 | 100 | 3:00:00 | 100 | 3:00:00 | 100 | 0 | 0.4 | 39 | 0 | 83 | 82 | 83 | 83 |
| 09/01/2026 | 5:00:00 | 244 | 73 | 4:08:05 | 73 | 4:56:01 | 73 | 100 | 4:00:00 | 100 | 4:00:00 | 100 | 0 | 0.3 | 118 | 0 | 82 | 82 | 83 | 83 |
| 09/01/2026 | 6:00:00 | 244 | 73 | 5:59:03 | 72 | 5:35:03 | 73 | 100 | 5:00:00 | 100 | 5:00:00 | 100 | 0 | 0.3 | 83 | 1 | 82 | 82 | 83 | 82 |
| 09/01/2026 | 7:00:00 | 244 | 77 | 6:59:05 | 73 | 6:00:00 | 77 | 100 | 6:00:00 | 100 | 6:00:00 | 100 | 0 | 0.8 | 98 | 8 | 82 | 82 | 82 | 82 |
| 09/01/2026 | 8:00:00 | 244 | 81 | 7:57:00 | 76 | 7:00:02 | 81 | 100 | 7:00:00 | 91 | 7:57:03 | 91.1 | 0 | 3.1 | 86 | 22 | 82 | 83 | 82 | 83 |
| 09/01/2026 | 9:00:00 | 244 | 87 | 8:56:00 | 81 | 8:02:01 | 86 | 93 | 8:08:04 | 81 | 9:00:00 | 80.9 | 0 | 2.6 | 91 | 33 | 83 | 84 | 83 | 84 |
| 09/01/2026 | 10:00:00 | 244 | 88 | 9:56:01 | 85 | 9:18:04 | 87 | 85 | 9:05:05 | 71 | 9:59:01 | 73.28 | 0 | 3.1 | 79 | 39 | 85 | 86 | 84 | 85 |
| 09/01/2026 | 11:00:00 | 244 | 90 | 10:55:03 | 87 | 10:05:01 | 88 | 77 | 10:05:05 | 68 | 10:52:02 | 73.2 | 0 | 4.4 | 113 | 48 | 87 | 87 | 86 | 86 |
| 09/01/2026 | 12:00:00 | 244 | 92 | 11:51:05 | 88 | 11:00:01 | 91 | 74 | 11:06:02 | 62 | 11:52:02 | 65.46 | 0 | 4.5 | 127 | 61 | 88 | 89 | 87 | 88 |
| 09/01/2026 | 13:00:00 | 244 | 93 | 12:57:04 | 90 | 12:33:01 | 93 | 70 | 12:48:02 | 59 | 12:57:05 | 64.63 | 0 | 5.5 | 128 | 58 | 89 | 90 | 88 | 89 |
| 09/01/2026 | 14:00:00 | 244 | 94 | 13:45:05 | 92 | 13:07:05 | 94 | 68 | 13:08:01 | 56 | 13:51:05 | 59.91 | 0 | 5.6 | 126 | 72 | 91 | 92 | 89 | 90 |
| 09/01/2026 | 15:00:00 | 244 | 95 | 14:42:00 | 93 | 14:10:04 | 94 | 62 | 14:19:02 | 54 | 14:40:01 | 57.12 | 0 | 5.3 | 117 | 58 | 92 | 92 | 90 | 91 |
| 09/01/2026 | 16:00:00 | 244 | 94 | 15:08:02 | 93 | 15:39:05 | 93 | 62 | 15:20:02 | 53 | 15:53:01 | 55.61 | 0 | 5.3 | 112 | 46 | 92 | 92 | 91 | 91 |
| 09/01/2026 | 17:00:00 | 244 | 94 | 16:16:00 | 92 | 16:58:03 | 92 | 62 | 16:24:05 | 53 | 16:05:03 | 58.86 | 0 | 4.1 | 112 | 27 | 91 | 90 | 90 | 90 |
| 09/01/2026 | 18:00:00 | 244 | 92 | 17:00:01 | 86 | 18:00:00 | 86 | 81 | 18:00:00 | 57 | 17:01:04 | 81.1 | 0 | 2.4 | 98 | 8 | 89 | 89 | 89 | 89 |
| 09/01/2026 | 19:00:00 | 244 | 86 | 18:00:00 | 80 | 18:59:05 | 80 | 93 | 18:59:05 | 81 | 18:00:00 | 92.8 | 0 | 0.3 | 61 | 0 | 88 | 87 | 88 | 88 |
| 09/01/2026 | 20:00:00 | 244 | 80 | 19:00:00 | 78 | 19:54:01 | 78 | 97 | 19:51:05 | 93 | 19:01:02 | 96.3 | 0 | 0.3 | 24 | 0 | 87 | 86 | 87 | 87 |
| 09/01/2026 | 21:00:00 | 244 | 79 | 20:15:01 | 77 | 20:56:05 | 78 | 98 | 20:59:03 | 95 | 20:11:01 | 97.7 | 0 | 0.4 | 27 | 0 | 86 | 86 | 87 | 86 |
| 09/01/2026 | 22:00:00 | 244 | 78 | 21:00:01 | 77 | 21:58:05 | 77 | 99 | 21:27:03 | 98 | 21:05:00 | 98.4 | 0 | 0.1 | 63 | 0 | 85 | 85 | 86 | 86 |
| 09/01/2026 | 23:00:00 | 244 | 77 | 22:00:02 | 76 | 22:59:04 | 76 | 100 | 22:56:00 | 98 | 22:04:04 | 99.5 | 0 | 0.2 | 59 | 0 | 85 | 84 | 85 | 85 |
| 09/02/2026 | 0:00:00 | 245 | 76 | 23:05:02 | 75 | 23:59:02 | 75 | 100 | 23:36:04 | 99 | 23:17:02 | 100 | 0 | 0.1 | 74 | 0 | 84 | 84 | 85 | 85 |
| 09/02/2026 | 1:00:00 | 245 | 75 | 0:04:02 | 74 | 0:53:00 | 75 | 100 | 0:00:00 | 100 | 0:00:00 | 100 | 0 | 0.0 | 59 | 0 | 84 | 83 | 84 | 84 |
| 09/02/2026 | 2:00:00 | 245 | 75 | 1:04:02 | 74 | 1:54:03 | 74 | 100 | 1:00:00 | 100 | 1:00:00 | 100 | 0 | 0.4 | 82 | 0 | 83 | 83 | 84 | 84 |
| 09/02/2026 | 3:00:00 | 245 | 74 | 2:04:05 | 73 | 2:57:05 | 73 | 100 | 2:00:00 | 100 | 2:00:00 | 100 | 0 | 0.4 | 94 | 0 | 83 | 82 | 83 | 83 |
| 09/02/2026 | 4:00:00 | 245 | 74 | 3:10:02 | 73 | 3:37:00 | 73 | 100 | 3:00:00 | 100 | 3:00:00 | 100 | 0 | 0.2 | 37 | 0 | 82 | 82 | 83 | 83 |
| 09/02/2026 | 5:00:00 | 245 | 74 | 4:42:01 | 73 | 4:02:03 | 74 | 100 | 4:00:00 | 100 | 4:00:00 | 100 | 0 | 0.6 | 60 | 0 | 82 | 82 | 83 | 82 |
| 09/02/2026 | 6:00:00 | 245 | 74 | 5:00:03 | 72 | 5:29:02 | 74 | 100 | 5:00:00 | 100 | 5:00:00 | 100 | 0 | 0.5 | 64 | 0 | 82 | 81 | 82 | 82 |
| 09/02/2026 | 7:00:00 | 245 | 79 | 6:53:01 | 74 | 6:00:01 | 78 | 100 | 6:00:00 | 95 | 6:56:04 | 95.3 | 0 | 0.7 | 85 | 12 | 81 | 82 | 82 | 82 |
| 09/02/2026 | 8:00:00 | 245 | 83 | 7:57:01 | 78 | 7:00:00 | 83 | 96 | 7:01:02 | 86 | 7:58:03 | 86.8 | 0 | 1.3 | 110 | 27 | 82 | 83 | 82 | 82 |
| 09/02/2026 | 9:00:00 | 245 | 89 | 8:56:05 | 83 | 8:00:00 | 89 | 88 | 8:01:05 | 72 | 8:54:05 | 73.48 | 0 | 2.0 | 115 | 43 | 84 | 85 | 83 | 84 |
| 09/02/2026 | 10:00:00 | 245 | 92 | 9:43:02 | 88 | 9:05:01 | 92 | 75 | 9:06:05 | 62 | 9:43:05 | 66.72 | 0 | 2.3 | 171 | 54 | 86 | 87 | 85 | 86 |
| 09/02/2026 | 11:00:00 | 245 | 94 | 10:44:05 | 91 | 10:37:02 | 94 | 68 | 10:37:04 | 58 | 10:59:01 | 61.43 | 0 | 2.4 | 148 | 66 | 88 | 90 | 87 | 88 |
| 09/02/2026 | 12:00:00 | 245 | 95 | 11:43:00 | 92 | 11:07:05 | 95 | 67 | 11:30:00 | 54 | 11:59:05 | 54.76 | 0 | 3.0 | 156 | 74 | 91 | 92 | 89 | 90 |
| 09/02/2026 | 13:00:00 | 245 | 97 | 12:39:01 | 93 | 12:52:01 | 93 | 64 | 12:49:00 | 52 | 12:26:03 | 57.3 | 0 | 2.6 | 131 | 74 | 93 | 93 | 91 | 92 |
| 09/02/2026 | 14:00:00 | 245 | 97 | 13:58:02 | 93 | 13:02:01 | 97 | 60 | 13:22:04 | 49 | 13:45:04 | 49.8 | 0 | 3.6 | 140 | 65 | 94 | 94 | 92 | 92 |
| 09/02/2026 | 15:00:00 | 245 | 97 | 14:23:01 | 95 | 14:08:03 | 96 | 58 | 14:08:05 | 48 | 14:58:01 | 49.02 | 0 | 4.5 | 159 | 59 | 94 | 94 | 93 | 93 |
| 09/02/2026 | 16:00:00 | 245 | 97 | 15:05:03 | 95 | 15:54:01 | 96 | 56 | 15:50:05 | 47 | 15:31:04 | 49.98 | 0 | 4.0 | 147 | 43 | 94 | 93 | 93 | 93 |
| 09/02/2026 | 17:00:00 | 245 | 97 | 16:16:05 | 95 | 16:59:00 | 95 | 54 | 16:55:02 | 48 | 16:35:04 | 51.53 | 0 | 3.6 | 170 | 28 | 93 | 92 | 92 | 92 |
| 09/02/2026 | 18:00:00 | 245 | 95 | 17:02:04 | 86 | 17:59:05 | 86 | 81 | 18:00:00 | 51 | 17:01:02 | 80.9 | 0 | 1.4 | 130 | 6 | 91 | 90 | 91 | 90 |
| 09/02/2026 | 19:00:00 | 245 | 86 | 18:00:01 | 80 | 18:59:03 | 80 | 92 | 18:59:05 | 81 | 18:01:01 | 91.6 | 0 | 0.2 | 49 | 0 | 89 | 89 | 90 | 89 |
| 09/02/2026 | 20:00:00 | 245 | 80 | 19:00:00 | 78 | 19:58:05 | 78 | 96 | 20:00:00 | 91 | 19:13:05 | 96.4 | 0 | 0.1 | 30 | 0 | 88 | 87 | 89 | 88 |
| 09/02/2026 | 21:00:00 | 245 | 78 | 20:50:05 | 78 | 20:30:05 | 78 | 98 | 20:45:03 | 96 | 20:12:05 | 97.9 | 0 | 0.4 | 72 | 0 | 87 | 87 | 88 | 87 |
| 09/02/2026 | 22:00:00 | 245 | 78 | 21:15:04 | 77 | 21:59:04 | 77 | 98 | 21:07:00 | 98 | 21:33:03 | 98 | 0 | 0.7 | 93 | 0 | 86 | 86 | 87 | 87 |
| 09/02/2026 | 23:00:00 | 245 | 77 | 22:00:02 | 76 | 22:47:02 | 76 | 100 | 22:57:05 | 98 | 22:01:03 | 99.7 | 0 | 0.4 | 44 | 0 | 86 | 85 | 86 | 86 |
| 09/03/2026 | 0:00:00 | 246 | 76 | 23:02:01 | 76 | 23:56:03 | 76 | 100 | 23:24:01 | 100 | 23:01:02 | 100 | 0 | 0.6 | 43 | 0 | 85 | 85 | 86 | 85 |
| 09/03/2026 | 1:00:00 | 246 | 76 | 0:00:00 | 75 | 0:46:01 | 75 | 100 | 0:00:00 | 100 | 0:00:00 | 100 | 0 | 0.1 | 133 | 0 | 85 | 84 | 85 | 85 |
| 09/03/2026 | 2:00:00 | 246 | 75 | 1:22:03 | 74 | 1:46:00 | 75 | 100 | 1:00:00 | 100 | 1:00:00 | 100 | 0 | 0.2 | 53 | 0 | 84 | 84 | 85 | 84 |
| 09/03/2026 | 3:00:00 | 246 | 75 | 2:00:00 | 74 | 2:59:05 | 74 | 100 | 2:00:00 | 100 | 2:00:00 | 100 | 0 | 0.2 | 60 | 0 | 84 | 83 | 84 | 84 |
| 09/03/2026 | 4:00:00 | 246 | 74 | 3:33:04 | 73 | 3:54:00 | 73 | 100 | 3:00:00 | 100 | 3:00:00 | 100 | 0 | 0.2 | 69 | 0 | 83 | 83 | 84 | 84 |
| 09/03/2026 | 5:00:00 | 246 | 74 | 4:10:00 | 73 | 4:41:01 | 73 | 100 | 4:00:00 | 100 | 4:00:00 | 100 | 0 | 0.2 | 61 | 0 | 83 | 82 | 83 | 83 |
| 09/03/2026 | 6:00:00 | 246 | 73 | 5:17:01 | 72 | 5:54:00 | 73 | 100 | 5:00:00 | 100 | 5:00:00 | 100 | 0 | 0.0 | 67 | 0 | 82 | 82 | 83 | 83 |
| 09/03/2026 | 7:00:00 | 246 | 80 | 6:59:05 | 73 | 6:00:03 | 80 | 100 | 6:00:00 | 95 | 7:00:00 | 95.2 | 0 | 0.0 | 230 | 11 | 82 | 82 | 83 | 83 |
| 09/03/2026 | 8:00:00 | 246 | 86 | 8:00:00 | 80 | 7:00:03 | 86 | 96 | 7:02:00 | 81 | 7:58:02 | 82.3 | 0 | 0.4 | 226 | 26 | 83 | 83 | 83 | 83 |
| 09/03/2026 | 9:00:00 | 246 | 90 | 8:37:00 | 86 | 8:00:00 | 90 | 83 | 8:01:01 | 69 | 8:58:02 | 70.29 | 0 | 0.8 | 44 | 42 | 84 | 85 | 84 | 84 |
| 09/03/2026 | 10:00:00 | 246 | 95 | 9:54:05 | 88 | 9:08:01 | 93 | 77 | 9:09:02 | 59 | 9:55:01 | 65.44 | 0 | 0.9 | 325 | 53 | 86 | 88 | 85 | 86 |
| 09/03/2026 | 11:00:00 | 246 | 95 | 10:48:05 | 92 | 10:25:01 | 93 | 70 | 10:56:03 | 58 | 10:02:03 | 66.65 | 0 | 2.1 | 19 | 59 | 89 | 90 | 87 | 88 |
| 09/03/2026 | 12:00:00 | 246 | 96 | 11:53:01 | 92 | 11:20:05 | 94 | 71 | 11:21:03 | 58 | 11:33:05 | 65.82 | 0 | 1.5 | 28 | 50 | 91 | 91 | 89 | 90 |
| 09/03/2026 | 13:00:00 | 246 | 98 | 12:47:04 | 93 | 12:35:05 | 95 | 70 | 12:38:00 | 54 | 12:50:03 | 61.83 | 0 | 1.0 | 306 | 38 | 91 | 91 | 90 | 90 |
| 09/03/2026 | 14:00:00 | 246 | 100 | 13:08:03 | 80 | 13:41:01 | 80 | 95 | 13:47:03 | 50 | 13:08:05 | 91.6 | 0.61 | 3.6 | 7 | 32 | 91 | 89 | 90 | 89 |
| 09/03/2026 | 15:00:00 | 246 | 81 | 14:23:02 | 80 | 14:07:04 | 81 | 98 | 14:43:03 | 91 | 14:01:02 | 97 | 0.02 | 1.7 | 62 | 11 | 88 | 88 | 88 | 88 |
| 09/03/2026 | 16:00:00 | 246 | 83 | 15:25:04 | 81 | 15:00:04 | 82 | 97 | 15:12:05 | 93 | 15:28:03 | 94.7 | 0 | 1.4 | 114 | 12 | 88 | 88 | 88 | 88 |
| 09/03/2026 | 17:00:00 | 246 | 83 | 16:47:04 | 82 | 16:00:03 | 83 | 95 | 16:47:05 | 94 | 16:07:02 | 94.2 | 0 | 0.4 | 45 | 8 | 88 | 88 | 88 | 88 |
| 09/03/2026 | 18:00:00 | 246 | 83 | 17:04:01 | 81 | 17:58:05 | 81 | 98 | 17:59:04 | 94 | 17:00:00 | 98 | 0 | 0.7 | 255 | 5 | 87 | 87 | 88 | 88 |
| 09/03/2026 | 19:00:00 | 246 | 81 | 18:00:00 | 80 | 18:54:05 | 80 | 100 | 18:55:04 | 98 | 18:00:02 | 100 | 0 | 0.6 | 111 | 0 | 87 | 86 | 87 | 87 |
| 09/03/2026 | 20:00:00 | 246 | 80 | 19:01:05 | 78 | 19:58:02 | 78 | 100 | 19:00:00 | 100 | 19:00:00 | 100 | 0 | 0.4 | 37 | 0 | 86 | 86 | 87 | 86 |
| 09/03/2026 | 21:00:00 | 246 | 78 | 20:02:04 | 77 | 20:49:00 | 77 | 100 | 20:00:00 | 100 | 20:00:00 | 100 | 0 | 0.5 | 86 | 0 | 85 | 85 | 86 | 86 |
| 09/03/2026 | 22:00:00 | 246 | 77 | 21:15:00 | 76 | 21:58:04 | 76 | 100 | 21:00:00 | 100 | 21:00:00 | 100 | 0 | 0.4 | 131 | 0 | 85 | 84 | 85 | 85 |
| 09/03/2026 | 23:00:00 | 246 | 76 | 22:00:01 | 76 | 22:58:05 | 76 | 100 | 22:00:00 | 100 | 22:00:00 | 100 | 0 | 0.6 | 56 | 0 | 84 | 84 | 85 | 85 |
| 09/04/2026 | 0:00:00 | 247 | 76 | 23:00:00 | 75 | 0:00:00 | 75 | 100 | 23:00:00 | 100 | 23:00:00 | 100 | 0 | 0.4 | 78 | 0 | 84 | 83 | 84 | 84 |
| 09/04/2026 | 1:00:00 | 247 | 75 | 0:09:01 | 74 | 0:53:00 | 74 | 100 | 0:00:00 | 100 | 0:00:00 | 100 | 0 | 0.2 | 94 | 0 | 83 | 83 | 84 | 84 |
| 09/04/2026 | 2:00:00 | 247 | 74 | 1:08:03 | 73 | 1:59:01 | 73 | 100 | 1:00:00 | 100 | 1:00:00 | 100 | 0 | 0.1 | 44 | 0 | 83 | 83 | 83 | 83 |
| 09/04/2026 | 3:00:00 | 247 | 74 | 2:06:00 | 73 | 2:21:00 | 74 | 100 | 2:00:00 | 100 | 2:00:00 | 100 | 0 | 0.3 | 72 | 0 | 82 | 82 | 83 | 83 |
| 09/04/2026 | 4:00:00 | 247 | 74 | 3:30:03 | 74 | 3:01:00 | 74 | 100 | 3:00:00 | 100 | 3:00:00 | 100 | 0 | 0.5 | 77 | 0 | 82 | 82 | 83 | 83 |
| 09/04/2026 | 5:00:00 | 247 | 74 | 4:05:02 | 74 | 4:36:00 | 74 | 100 | 4:00:00 | 100 | 4:00:00 | 100 | 0 | 0.2 | 90 | 0 | 82 | 82 | 83 | 82 |
| 09/04/2026 | 6:00:00 | 247 | 74 | 5:36:02 | 74 | 5:08:05 | 74 | 100 | 5:00:00 | 100 | 5:00:00 | 100 | 0 | 0.3 | 114 | 0 | 82 | 82 | 82 | 82 |
| 09/04/2026 | 7:00:00 | 247 | 75 | 6:59:05 | 74 | 6:00:00 | 75 | 100 | 6:00:00 | 100 | 6:00:00 | 100 | 0 | 0.9 | 85 | 4 | 82 | 82 | 82 | 82 |
| 09/04/2026 | 8:00:00 | 247 | 77 | 7:56:05 | 75 | 7:02:03 | 77 | 100 | 7:00:00 | 100 | 7:00:00 | 100 | 0 | 0.6 | 101 | 10 | 82 | 82 | 82 | 82 |
| 09/04/2026 | 9:00:00 | 247 | 81 | 8:59:05 | 77 | 8:00:00 | 81 | 100 | 8:00:00 | 93 | 8:56:01 | 94.2 | 0 | 0.6 | 132 | 22 | 83 | 83 | 83 | 83 |
| 09/04/2026 | 10:00:00 | 247 | 87 | 9:59:05 | 80 | 9:00:02 | 87 | 95 | 9:02:04 | 82 | 9:58:05 | 84.1 | 0 | 1.0 | 111 | 36 | 84 | 85 | 84 | 84 |
| 09/04/2026 | 11:00:00 | 247 | 93 | 11:00:00 | 87 | 10:00:00 | 93 | 85 | 10:00:04 | 70 | 10:59:03 | 72.05 | 0 | 1.6 | 90 | 65 | 87 | 88 | 85 | 86 |
| 09/04/2026 | 12:00:00 | 247 | 96 | 11:15:03 | 91 | 11:54:03 | 93 | 75 | 11:03:05 | 59 | 11:16:02 | 67.18 | 0 | 1.0 | 358 | 53 | 90 | 90 | 88 | 89 |
| 09/04/2026 | 13:00:00 | 247 | 94 | 12:11:02 | 91 | 12:30:02 | 91 | 74 | 12:31:02 | 64 | 12:01:04 | 71.65 | 0 | 1.9 | 96 | 42 | 90 | 90 | 89 | 89 |
| 09/04/2026 | 14:00:00 | 247 | 95 | 13:46:02 | 91 | 13:12:02 | 95 | 74 | 13:15:04 | 60 | 13:48:03 | 62.15 | 0 | 1.5 | 51 | 55 | 91 | 91 | 89 | 90 |
| 09/04/2026 | 15:00:00 | 247 | 97 | 14:23:04 | 83 | 14:59:05 | 83 | 79 | 14:55:05 | 55 | 14:20:02 | 75.46 | 0 | 4.0 | 198 | 38 | 92 | 91 | 90 | 91 |
| 09/04/2026 | 16:00:00 | 247 | 83 | 15:00:01 | 76 | 15:34:05 | 77 | 99 | 15:54:01 | 76 | 15:00:03 | 98.7 | 0.17 | 2.0 | 298 | 3 | 89 | 88 | 90 | 89 |
| 09/04/2026 | 17:00:00 | 247 | 77 | 16:00:02 | 76 | 16:44:01 | 76 | 100 | 16:45:04 | 97 | 17:00:00 | 96.6 | 0.07 | 2.5 | 295 | 4 | 87 | 87 | 88 | 88 |
| 09/04/2026 | 18:00:00 | 247 | 77 | 17:05:05 | 74 | 17:47:02 | 75 | 100 | 17:59:05 | 95 | 17:05:04 | 99.9 | 0.15 | 3.8 | 137 | 0 | 86 | 85 | 87 | 86 |
| 09/04/2026 | 19:00:00 | 247 | 75 | 18:05:00 | 74 | 18:56:03 | 74 | 100 | 18:04:04 | 100 | 18:15:05 | 100 | 0.09 | 0.8 | 179 | 0 | 85 | 84 | 86 | 85 |
| 09/04/2026 | 20:00:00 | 247 | 74 | 19:53:00 | 74 | 19:05:03 | 74 | 100 | 19:00:00 | 100 | 19:00:00 | 100 | 0.04 | 0.6 | 126 | 0 | 84 | 84 | 85 | 85 |
| 09/04/2026 | 21:00:00 | 247 | 75 | 20:17:03 | 74 | 20:41:02 | 75 | 100 | 20:00:00 | 100 | 20:00:00 | 100 | 0 | 0.6 | 132 | 0 | 84 | 84 | 85 | 84 |
| 09/04/2026 | 22:00:00 | 247 | 75 | 21:32:02 | 74 | 21:54:00 | 74 | 100 | 21:00:00 | 100 | 21:00:00 | 100 | 0 | 0.5 | 136 | 0 | 83 | 83 | 84 | 84 |
| 09/04/2026 | 23:00:00 | 247 | 75 | 22:54:03 | 74 | 22:00:03 | 74 | 100 | 22:00:00 | 100 | 22:00:00 | 100 | 0 | 0.0 | 0 | 0 | 83 | 83 | 84 | 84 |
| 09/05/2026 | 0:00:00 | 248 | 75 | 23:07:03 | 74 | 23:59:04 | 74 | 100 | 23:00:00 | 100 | 23:00:00 | 100 | 0.01 | 0.1 | 92 | 0 | 83 | 83 | 83 | 83 |
| 09/05/2026 | 1:00:00 | 248 | 74 | 0:52:02 | 74 | 0:15:00 | 74 | 100 | 0:00:00 | 100 | 0:00:00 | 100 | 0 | 0.4 | 138 | 0 | 83 | 82 | 83 | 83 |
| 09/05/2026 | 2:00:00 | 248 | 74 | 1:13:05 | 74 | 1:59:02 | 74 | 100 | 1:00:00 | 100 | 1:00:00 | 100 | 0 | 0.2 | 181 | 0 | 82 | 82 | 83 | 83 |
| 09/05/2026 | 3:00:00 | 248 | 74 | 2:00:00 | 74 | 2:32:05 | 74 | 100 | 2:00:00 | 100 | 2:00:00 | 100 | 0 | 0.5 | 114 | 0 | 82 | 82 | 83 | 82 |
| 09/05/2026 | 4:00:00 | 248 | 74 | 3:00:00 | 73 | 3:37:04 | 73 | 100 | 3:00:00 | 100 | 3:00:00 | 100 | 0 | 0.1 | 107 | 0 | 82 | 82 | 82 | 82 |
| 09/05/2026 | 5:00:00 | 248 | 74 | 4:26:02 | 73 | 4:41:04 | 73 | 100 | 4:00:00 | 100 | 4:00:00 | 100 | 0 | 0.4 | 52 | 0 | 82 | 81 | 82 | 82 |
| 09/05/2026 | 6:00:00 | 248 | 74 | 5:56:04 | 73 | 5:12:04 | 74 | 100 | 5:00:00 | 100 | 5:00:00 | 100 | 0 | 0.0 | 140 | 0 | 81 | 81 | 82 | 82 |
| 09/05/2026 | 7:00:00 | 248 | 76 | 6:51:02 | 74 | 6:04:03 | 75 | 100 | 6:00:00 | 100 | 6:00:00 | 100 | 0 | 0.8 | 115 | 8 | 81 | 81 | 82 | 82 |
| 09/05/2026 | 8:00:00 | 248 | 80 | 7:59:01 | 75 | 7:08:01 | 80 | 100 | 7:00:00 | 95 | 8:00:00 | 94.8 | 0 | 0.7 | 101 | 16 | 81 | 82 | 82 | 82 |
| 09/05/2026 | 9:00:00 | 248 | 84 | 8:59:05 | 80 | 8:00:00 | 84 | 96 | 8:00:02 | 87 | 8:54:02 | 89.9 | 0 | 2.0 | 98 | 42 | 83 | 84 | 82 | 83 |
| 09/05/2026 | 10:00:00 | 248 | 89 | 9:58:01 | 83 | 9:04:04 | 88 | 90 | 9:05:04 | 78 | 9:59:00 | 81.3 | 0 | 2.1 | 105 | 55 | 85 | 87 | 84 | 85 |
| 09/05/2026 | 11:00:00 | 248 | 90 | 10:54:03 | 87 | 10:09:02 | 89 | 85 | 10:06:05 | 73 | 10:59:04 | 73.37 | 0 | 2.8 | 116 | 67 | 88 | 89 | 86 | 87 |
| 09/05/2026 | 12:00:00 | 248 | 91 | 11:40:02 | 89 | 11:59:01 | 89 | 80 | 11:03:03 | 68 | 11:40:04 | 77.18 | 0 | 3.5 | 86 | 64 | 91 | 91 | 88 | 89 |
| 09/05/2026 | 13:00:00 | 248 | 93 | 12:45:05 | 89 | 12:07:02 | 92 | 79 | 12:08:02 | 67 | 12:39:03 | 69.84 | 0 | 3.2 | 78 | 58 | 91 | 92 | 90 | 90 |
| 09/05/2026 | 14:00:00 | 248 | 95 | 13:43:05 | 91 | 13:10:04 | 93 | 74 | 13:00:02 | 63 | 13:44:05 | 63.69 | 0 | 3.3 | 83 | 65 | 92 | 93 | 91 | 91 |
| 09/05/2026 | 15:00:00 | 248 | 95 | 14:39:02 | 93 | 14:02:05 | 94 | 73 | 14:14:00 | 60 | 14:40:05 | 65.77 | 0 | 3.2 | 95 | 59 | 93 | 93 | 92 | 92 |
| Average | 82.55 | 79.72 | 81.18 | 89.02 | 82.14 | 85.48 | 0.01 | 1.41 | 20.56 | 85.94 | 85.9 | 85.85 | 85.9 | |||||||
| Total | 1.16 |